Emden, Missouri
Current Conditions -  °F | °C
As of 2:54 PM on Monday 24 Nov 2014 (Local Time) from KUIN Reporting Station
Overcast Overcast  
Wind Chill: 22°   Ceiling: 2800
Heat Index: 33°   Visibility: 10mi
Dew Point: 24°   Wind: 18mph
Humidity: 70%   Direction: 260°W
Pressure: 29.73"   Gusts: 26mph
Location:  39.8°N, 91.86°W
Report Text: KUIN 242054Z AUTO 26016G23KT 10SM OVC028 01/M04 A2973 RMK AO2 SLP071 T00061044 53037
Loading
Personal Weather Stations






























Interactive Weather Map New forecast layout! Learn more

10-Day Weather Forecast

Advertisements
Track Severe Weather on mobile